createdAt,value
2022-12-23T00:00:00.183Z,61.97
2022-12-23T00:01:05.756Z,60.20
2022-12-23T00:02:08.748Z,59.67
2022-12-23T00:03:11.594Z,60.83
2022-12-23T00:04:14.067Z,56.92
2022-12-23T00:05:16.580Z,58.58
2022-12-23T00:06:20.390Z,56.20
2022-12-23T00:07:22.719Z,60.88
2022-12-23T00:08:26.278Z,58.90
2022-12-23T00:09:28.699Z,60.15
2022-12-23T00:10:31.098Z,62.67
2022-12-23T00:11:33.965Z,58.63
2022-12-23T00:12:54.996Z,60.38
2022-12-23T00:14:21.104Z,53.47
2022-12-23T00:15:24.302Z,54.13
2022-12-23T00:16:26.796Z,58.83
2022-12-23T00:17:29.299Z,56.92
2022-12-23T00:18:32.406Z,58.80
2022-12-23T00:19:34.848Z,58.00
2022-12-23T00:20:37.230Z,56.90
2022-12-23T00:21:39.598Z,57.00
2022-12-23T00:23:00.781Z,59.42
2022-12-23T00:24:03.243Z,57.42
2022-12-23T00:25:05.954Z,61.45
2022-12-23T00:26:17.553Z,58.85
2022-12-23T00:27:20.724Z,53.08
2022-12-23T00:28:25.400Z,58.05
2022-12-23T00:29:27.887Z,53.75
2022-12-23T00:30:30.401Z,55.13
2022-12-23T00:31:33.012Z,59.00
2022-12-23T00:32:35.936Z,56.33
2022-12-23T00:33:41.196Z,54.40
2022-12-23T00:34:43.527Z,54.15
2022-12-23T00:35:46.668Z,56.85
2022-12-23T00:36:49.304Z,53.10
2022-12-23T00:37:51.769Z,53.50
2022-12-23T00:39:14.310Z,59.30
2022-12-23T00:40:35.459Z,55.33
2022-12-23T00:41:57.095Z,56.13
2022-12-23T00:43:03.127Z,52.33
2022-12-23T00:44:05.893Z,51.38
2022-12-23T00:45:17.827Z,56.08
2022-12-23T00:46:20.493Z,53.63
2022-12-23T00:47:41.129Z,52.55
2022-12-23T00:49:07.118Z,51.30
2022-12-23T00:50:10.198Z,51.15
2022-12-23T00:51:12.643Z,51.63
2022-12-23T00:52:18.360Z,51.08
2022-12-23T00:53:21.633Z,54.25
2022-12-23T00:54:24.074Z,52.75
2022-12-23T00:55:26.721Z,54.28
2022-12-23T00:56:29.300Z,52.35
2022-12-23T00:57:31.745Z,55.75
2022-12-23T00:58:37.593Z,52.05
2022-12-23T00:59:39.942Z,52.75
2022-12-23T01:01:01.226Z,49.30
2022-12-23T01:02:22.791Z,50.92
2022-12-23T01:03:44.285Z,49.78
2022-12-23T01:05:05.339Z,46.90
2022-12-23T01:06:08.117Z,48.33
2022-12-23T01:07:11.068Z,51.60
2022-12-23T01:08:13.611Z,49.17
2022-12-23T01:09:16.733Z,54.00
2022-12-23T01:10:19.234Z,50.78
2022-12-23T01:11:21.661Z,49.63
2022-12-23T01:12:24.112Z,50.28
2022-12-23T01:13:26.561Z,51.35
2022-12-23T01:14:29.945Z,51.20
2022-12-23T01:15:32.884Z,50.22
2022-12-23T01:16:38.800Z,51.58
2022-12-23T01:17:41.408Z,50.70
2022-12-23T01:18:46.730Z,51.80
2022-12-23T01:19:49.220Z,50.65
2022-12-23T01:20:51.913Z,53.63
2022-12-23T01:21:54.696Z,48.67
2022-12-23T01:22:57.263Z,51.58
2022-12-23T01:24:00.423Z,48.40
2022-12-23T01:25:03.001Z,51.85
2022-12-23T01:26:07.835Z,53.10
2022-12-23T01:27:10.704Z,51.00
2022-12-23T01:28:13.213Z,50.97
2022-12-23T01:29:15.594Z,53.75
2022-12-23T01:30:18.232Z,49.30
2022-12-23T01:31:20.870Z,48.17
2022-12-23T01:32:23.262Z,53.60
2022-12-23T01:33:26.006Z,51.15
2022-12-23T01:34:34.286Z,52.35
2022-12-23T01:36:41.547Z,44.92
2022-12-23T01:37:43.852Z,47.72
2022-12-23T01:38:46.520Z,52.67
2022-12-23T01:39:49.108Z,52.20
2022-12-23T01:40:51.486Z,53.97
2022-12-23T01:42:12.350Z,54.42
2022-12-23T01:43:20.081Z,51.25
2022-12-23T01:44:46.914Z,53.38
2022-12-23T01:45:50.213Z,50.42
2022-12-23T01:46:52.879Z,50.67
2022-12-23T01:48:03.789Z,49.40
2022-12-23T01:49:06.107Z,49.63
2022-12-23T01:50:45.061Z,49.95
2022-12-23T01:51:47.614Z,51.92
2022-12-23T01:53:06.833Z,52.53
2022-12-23T01:54:09.925Z,47.42
2022-12-23T01:55:14.178Z,49.72
2022-12-23T01:57:29.844Z,43.50
2022-12-23T01:58:44.479Z,45.00
2022-12-23T02:01:27.051Z,43.17
2022-12-23T02:02:49.316Z,47.25
2022-12-23T02:03:57.882Z,47.03
2022-12-23T02:05:00.710Z,49.28
2022-12-23T02:06:23.029Z,47.05
2022-12-23T02:07:45.397Z,46.65
2022-12-23T02:09:06.507Z,50.33
2022-12-23T02:10:09.582Z,48.45
2022-12-23T02:11:53.783Z,49.95
2022-12-23T02:13:19.091Z,45.70
2022-12-23T02:15:17.822Z,45.05
2022-12-23T02:16:20.995Z,45.70
2022-12-23T02:17:26.466Z,46.17
2022-12-23T02:18:45.826Z,50.15
2022-12-23T02:19:54.182Z,47.00
2022-12-23T02:21:20.830Z,50.58
2022-12-23T02:22:38.904Z,48.42
2022-12-23T02:23:44.290Z,48.08
2022-12-23T02:25:14.597Z,48.72
2022-12-23T02:26:54.697Z,48.10
2022-12-23T02:28:15.822Z,46.42
2022-12-23T02:29:31.869Z,45.28
2022-12-23T02:30:43.285Z,47.28
2022-12-23T02:31:58.751Z,49.63
2022-12-23T02:33:35.342Z,50.00
2022-12-23T02:35:01.199Z,49.97
2022-12-23T02:36:18.756Z,46.83
2022-12-23T02:37:27.537Z,50.83
2022-12-23T02:38:39.215Z,49.95
2022-12-23T02:39:57.338Z,48.60
2022-12-23T02:41:08.534Z,51.30
2022-12-23T02:42:18.332Z,50.15
2022-12-23T02:43:47.094Z,50.60
2022-12-23T02:45:13.798Z,48.35
2022-12-23T02:46:36.631Z,46.95
2022-12-23T02:47:51.323Z,47.65
2022-12-23T02:48:53.583Z,46.97
2022-12-23T02:49:59.271Z,52.25
2022-12-23T02:51:04.274Z,50.63
2022-12-23T02:52:13.440Z,50.42
2022-12-23T02:53:30.746Z,46.92
2022-12-23T02:54:39.332Z,50.42
2022-12-23T02:55:45.152Z,48.78
2022-12-23T02:56:51.225Z,49.40
2022-12-23T02:57:56.087Z,49.10
2022-12-23T02:59:23.580Z,49.70
2022-12-23T03:00:26.108Z,46.97
2022-12-23T03:01:32.155Z,51.15
2022-12-23T03:02:38.733Z,48.40
2022-12-23T03:03:42.762Z,50.70
2022-12-23T03:04:45.123Z,49.65
2022-12-23T03:05:50.049Z,50.10
2022-12-23T03:06:54.741Z,48.85
2022-12-23T03:08:02.802Z,50.47
2022-12-23T03:09:06.722Z,52.42
2022-12-23T03:10:20.956Z,51.40
2022-12-23T03:11:40.398Z,48.90
2022-12-23T03:13:26.202Z,47.08
2022-12-23T03:14:31.488Z,46.88
2022-12-23T03:15:47.436Z,48.95
2022-12-23T03:16:52.430Z,48.63
2022-12-23T03:18:05.001Z,50.97
2022-12-23T03:19:32.548Z,51.78
2022-12-23T03:20:47.950Z,47.60
2022-12-23T03:22:08.787Z,46.00
2022-12-23T03:23:20.229Z,48.03
2022-12-23T03:24:45.024Z,49.40
2022-12-23T03:26:12.584Z,48.38
2022-12-23T03:27:43.433Z,46.88
2022-12-23T03:29:09.008Z,45.63
2022-12-23T03:30:15.286Z,46.03
2022-12-23T03:31:27.487Z,45.28
2022-12-23T03:32:35.591Z,45.97
2022-12-23T03:33:42.626Z,51.08
2022-12-23T03:34:50.298Z,50.80
2022-12-23T03:35:58.452Z,46.25
2022-12-23T03:37:04.819Z,49.05
2022-12-23T03:38:10.436Z,49.55
2022-12-23T03:39:17.653Z,47.78
2022-12-23T03:40:25.369Z,50.35
2022-12-23T03:41:39.954Z,47.88
2022-12-23T03:42:46.766Z,45.25
2022-12-23T03:44:13.738Z,47.13
2022-12-23T03:45:39.283Z,45.78
2022-12-23T03:47:08.914Z,46.17
2022-12-23T03:48:29.081Z,45.17
2022-12-23T03:49:36.016Z,46.13
2022-12-23T03:50:40.269Z,45.75
2022-12-23T03:51:51.400Z,49.38
2022-12-23T03:53:01.487Z,46.03
2022-12-23T03:54:10.860Z,48.28
2022-12-23T03:55:22.420Z,50.63
2022-12-23T03:56:31.190Z,50.22
2022-12-23T03:57:45.076Z,51.25
2022-12-23T03:58:53.823Z,48.70
2022-12-23T03:59:56.462Z,50.63
2022-12-23T04:01:22.754Z,49.03
2022-12-23T04:02:53.429Z,45.20
2022-12-23T04:04:17.932Z,47.60
2022-12-23T04:05:23.487Z,45.78
2022-12-23T04:06:32.042Z,48.08
2022-12-23T04:07:53.137Z,46.65
2022-12-23T04:08:57.929Z,47.78
2022-12-23T04:10:00.980Z,45.00
2022-12-23T04:11:04.031Z,52.35
2022-12-23T04:12:08.130Z,50.33
2022-12-23T04:13:10.751Z,50.97
2022-12-23T04:14:18.524Z,50.63
2022-12-23T04:15:26.056Z,50.40
2022-12-23T04:16:29.563Z,48.78
2022-12-23T04:17:33.093Z,49.83
2022-12-23T04:18:36.949Z,53.08
2022-12-23T04:19:39.396Z,53.85
2022-12-23T04:20:42.015Z,49.65
2022-12-23T04:21:44.475Z,51.47
2022-12-23T04:22:47.072Z,50.85
2022-12-23T04:23:49.544Z,49.58
2022-12-23T04:24:51.956Z,50.10
2022-12-23T04:25:54.391Z,51.00
2022-12-23T04:26:56.809Z,51.47
2022-12-23T04:27:59.255Z,53.25
2022-12-23T04:29:02.170Z,49.25
2022-12-23T04:30:06.116Z,49.28
2022-12-23T04:31:08.594Z,49.65
2022-12-23T04:32:11.531Z,49.30
2022-12-23T04:33:13.899Z,50.30
2022-12-23T04:34:16.381Z,50.65
2022-12-23T04:35:19.011Z,49.25
2022-12-23T04:36:21.600Z,50.10
2022-12-23T04:37:23.947Z,47.63
2022-12-23T04:38:28.439Z,44.85
2022-12-23T04:39:30.902Z,49.15
2022-12-23T04:40:33.389Z,47.17
2022-12-23T04:41:35.710Z,47.63
2022-12-23T04:42:38.104Z,47.55
2022-12-23T04:43:40.690Z,51.33
2022-12-23T04:44:43.171Z,47.50
2022-12-23T04:45:51.598Z,48.47
2022-12-23T04:46:54.008Z,46.50
2022-12-23T04:47:56.492Z,47.40
2022-12-23T04:49:00.802Z,51.50
2022-12-23T04:50:03.916Z,47.80
2022-12-23T04:51:09.853Z,45.67
2022-12-23T04:52:12.366Z,48.47
2022-12-23T04:53:14.867Z,50.30
2022-12-23T04:54:17.456Z,50.03
2022-12-23T04:55:19.931Z,51.63
2022-12-23T04:56:23.127Z,50.17
2022-12-23T04:57:25.825Z,51.42
2022-12-23T04:58:32.465Z,51.85
2022-12-23T04:59:34.964Z,50.45
2022-12-23T05:00:40.068Z,54.38
2022-12-23T05:01:43.444Z,52.75
2022-12-23T05:02:46.117Z,51.92
2022-12-23T05:03:48.567Z,50.00
2022-12-23T05:04:50.920Z,52.08
2022-12-23T05:05:53.269Z,50.80
2022-12-23T05:06:55.729Z,51.05
2022-12-23T05:08:04.404Z,52.38
2022-12-23T05:09:07.094Z,52.05
2022-12-23T05:10:10.634Z,54.05
2022-12-23T05:11:13.458Z,52.50
2022-12-23T05:12:15.837Z,53.72
2022-12-23T05:13:18.313Z,56.80
2022-12-23T05:14:21.010Z,52.95
2022-12-23T05:15:23.453Z,55.97
2022-12-23T05:16:25.861Z,56.78
2022-12-23T05:17:28.444Z,53.83
2022-12-23T05:18:35.217Z,55.88
2022-12-23T05:19:37.752Z,56.83
2022-12-23T05:20:40.940Z,62.15
2022-12-23T05:21:43.704Z,66.78
2022-12-23T05:22:46.079Z,67.45
2022-12-23T05:23:48.479Z,64.43
2022-12-23T05:24:50.930Z,65.72
2022-12-23T05:25:54.406Z,69.07
2022-12-23T05:26:59.978Z,91.55
2022-12-23T05:28:04.187Z,90.78
2022-12-23T05:29:07.634Z,90.43
2022-12-23T05:30:10.717Z,76.30
2022-12-23T05:31:17.633Z,76.30
2022-12-23T05:32:20.239Z,71.45
2022-12-23T05:33:22.614Z,79.13
2022-12-23T05:34:25.103Z,77.15
2022-12-23T05:35:28.679Z,72.95
2022-12-23T05:36:31.182Z,67.50
2022-12-23T05:37:33.724Z,68.20
2022-12-23T05:38:37.467Z,70.05
2022-12-23T05:39:40.115Z,65.38
2022-12-23T05:40:42.519Z,66.85
2022-12-23T05:41:46.020Z,62.90
2022-12-23T05:42:48.484Z,61.53
2022-12-23T05:43:50.942Z,62.85
2022-12-23T05:44:53.429Z,59.50
2022-12-23T05:45:55.955Z,63.33
2022-12-23T05:46:58.374Z,66.00
2022-12-23T05:48:01.015Z,63.90
2022-12-23T05:49:03.760Z,62.97
2022-12-23T05:50:06.915Z,63.72
2022-12-23T05:51:09.417Z,62.67
2022-12-23T05:52:11.862Z,64.40
2022-12-23T05:53:14.338Z,61.17
2022-12-23T05:54:16.755Z,60.95
2022-12-23T05:55:19.139Z,63.70
2022-12-23T05:56:21.666Z,64.38
2022-12-23T05:57:24.149Z,62.13
2022-12-23T05:58:28.252Z,62.67
2022-12-23T05:59:32.813Z,66.97
2022-12-23T06:00:37.109Z,63.08
2022-12-23T06:01:39.701Z,62.03
2022-12-23T06:02:43.085Z,60.58
2022-12-23T06:03:50.679Z,60.25
2022-12-23T06:04:53.478Z,63.10
2022-12-23T06:05:56.426Z,62.08
2022-12-23T06:06:59.243Z,58.97
2022-12-23T06:08:01.745Z,58.13
2022-12-23T06:09:05.556Z,61.78
2022-12-23T06:10:10.030Z,69.93
2022-12-23T06:11:13.348Z,94.00
2022-12-23T06:12:15.800Z,79.63
2022-12-23T06:13:18.267Z,70.50
2022-12-23T06:14:26.883Z,74.65
2022-12-23T06:15:31.195Z,68.15
2022-12-23T06:16:34.190Z,70.90
2022-12-23T06:17:36.877Z,63.35
2022-12-23T06:18:41.377Z,65.13
2022-12-23T06:19:44.233Z,61.13
2022-12-23T06:20:47.798Z,59.88
2022-12-23T06:21:52.361Z,64.22
2022-12-23T06:22:59.363Z,69.47
2022-12-23T06:24:03.753Z,58.78
2022-12-23T06:25:06.681Z,64.22
2022-12-23T06:26:09.097Z,68.82
2022-12-23T06:27:11.478Z,65.13
2022-12-23T06:28:23.160Z,61.97
2022-12-23T06:29:25.763Z,65.18
2022-12-23T06:30:28.252Z,62.45
2022-12-23T06:31:30.819Z,68.68
2022-12-23T06:32:38.240Z,63.38
2022-12-23T06:33:41.073Z,66.50
2022-12-23T06:34:43.701Z,60.53
2022-12-23T06:35:46.121Z,63.42
2022-12-23T06:36:48.971Z,59.70
2022-12-23T06:37:53.582Z,65.47
2022-12-23T06:38:58.044Z,63.78
2022-12-23T06:40:00.666Z,69.80
2022-12-23T06:41:03.297Z,65.65
2022-12-23T06:42:06.335Z,71.95
2022-12-23T06:43:10.764Z,68.65
2022-12-23T06:44:13.301Z,70.43
2022-12-23T06:45:15.752Z,71.20
2022-12-23T06:46:18.150Z,75.85
2022-12-23T06:47:20.787Z,68.90
2022-12-23T06:48:23.713Z,69.70
2022-12-23T06:49:26.441Z,79.35
2022-12-23T06:50:28.890Z,67.53
2022-12-23T06:51:31.743Z,72.53
2022-12-23T06:52:34.277Z,90.50
2022-12-23T06:53:37.085Z,74.50
2022-12-23T06:54:39.776Z,99.85
2022-12-23T06:55:42.204Z,82.25
2022-12-23T06:56:44.593Z,79.95
2022-12-23T06:57:46.997Z,85.90
2022-12-23T06:58:52.658Z,82.38
2022-12-23T07:00:57.479Z,75.13
2022-12-23T07:02:00.130Z,80.25
2022-12-23T07:03:02.778Z,80.60
2022-12-23T07:04:05.606Z,84.78
2022-12-23T07:05:08.754Z,89.82
2022-12-23T07:06:11.281Z,85.78
2022-12-23T07:07:13.700Z,89.68
2022-12-23T07:08:16.807Z,84.47
2022-12-23T07:09:19.252Z,83.57
2022-12-23T07:10:21.717Z,89.45
2022-12-23T07:11:24.536Z,90.30
2022-12-23T07:12:27.243Z,75.55
2022-12-23T07:13:30.030Z,96.68
2022-12-23T07:14:32.421Z,101.80
2022-12-23T07:15:35.839Z,94.38
2022-12-23T07:16:38.715Z,94.65
2022-12-23T07:17:41.397Z,91.57
2022-12-23T07:18:44.306Z,95.25
2022-12-23T07:19:46.777Z,93.95
2022-12-23T07:20:50.613Z,91.50
2022-12-23T07:21:53.211Z,80.10
2022-12-23T07:22:57.277Z,83.38
2022-12-23T07:23:59.812Z,80.38
2022-12-23T07:25:02.232Z,75.93
2022-12-23T07:26:04.865Z,81.75
2022-12-23T07:27:07.537Z,81.25
2022-12-23T07:28:09.973Z,81.45
2022-12-23T07:29:12.477Z,88.45
2022-12-23T07:30:15.214Z,76.38
2022-12-23T07:31:17.891Z,79.43
2022-12-23T07:32:20.300Z,89.53
2022-12-23T07:33:22.828Z,82.97
2022-12-23T07:34:25.281Z,86.32
2022-12-23T07:35:29.005Z,90.57
2022-12-23T07:37:34.406Z,84.18
2022-12-23T07:38:37.541Z,84.25
2022-12-23T07:39:40.094Z,83.95
2022-12-23T07:40:42.588Z,88.00
2022-12-23T07:41:44.931Z,75.65
2022-12-23T07:42:50.163Z,82.43
2022-12-23T07:43:52.459Z,85.10
2022-12-23T07:44:55.016Z,88.80
2022-12-23T07:46:00.414Z,98.03
2022-12-23T07:47:03.924Z,109.70
2022-12-23T07:48:06.857Z,105.22
2022-12-23T07:49:10.286Z,94.38
2022-12-23T07:50:13.272Z,100.35
2022-12-23T07:51:16.131Z,99.85
2022-12-23T07:52:18.705Z,97.82
2022-12-23T07:53:21.028Z,98.78
2022-12-23T07:54:23.441Z,87.78
2022-12-23T07:55:25.916Z,90.78
2022-12-23T07:56:29.488Z,98.85
2022-12-23T07:57:38.075Z,105.80
2022-12-23T07:58:49.963Z,104.90
2022-12-23T07:59:52.996Z,100.03
2022-12-23T08:01:05.821Z,102.57
2022-12-23T08:02:10.820Z,93.68
2022-12-23T08:03:13.828Z,95.65
2022-12-23T08:04:16.416Z,92.13
2022-12-23T08:05:19.111Z,90.93
2022-12-23T08:06:21.625Z,92.03
2022-12-23T08:07:23.980Z,90.60
2022-12-23T08:08:26.650Z,85.82
2022-12-23T08:09:29.367Z,85.38
2022-12-23T08:10:31.890Z,92.07
2022-12-23T08:11:34.451Z,83.88
2022-12-23T08:12:36.893Z,84.82
2022-12-23T08:13:41.044Z,79.57
2022-12-23T08:14:43.399Z,77.47
2022-12-23T08:15:48.643Z,82.88
2022-12-23T08:16:51.184Z,84.38
2022-12-23T08:17:56.149Z,84.45
2022-12-23T08:18:58.878Z,85.63
2022-12-23T08:20:08.656Z,75.85
2022-12-23T08:21:11.267Z,79.97
2022-12-23T08:22:13.987Z,78.63
2022-12-23T08:23:21.385Z,78.30
2022-12-23T08:25:29.536Z,63.67
2022-12-23T08:26:32.935Z,72.40
2022-12-23T08:27:35.991Z,69.55
2022-12-23T08:30:01.398Z,74.03
2022-12-23T08:31:10.040Z,70.00
2022-12-23T08:32:12.595Z,74.75
2022-12-23T08:33:14.962Z,82.70
2022-12-23T08:34:17.701Z,79.25
2022-12-23T08:35:20.115Z,74.45
2022-12-23T08:36:28.930Z,80.72
2022-12-23T08:37:31.230Z,84.18
2022-12-23T08:38:37.305Z,82.85
2022-12-23T08:39:39.601Z,79.72
2022-12-23T08:40:42.260Z,74.32
2022-12-23T08:41:47.586Z,86.47
2022-12-23T08:42:56.327Z,86.70
2022-12-23T08:43:58.910Z,79.03
2022-12-23T08:45:01.361Z,86.18
2022-12-23T08:46:04.501Z,90.78
2022-12-23T08:47:07.111Z,90.53
2022-12-23T08:48:09.858Z,87.72
2022-12-23T08:49:12.881Z,96.30
2022-12-23T08:50:16.024Z,94.43
2022-12-23T08:51:20.820Z,93.38
2022-12-23T08:52:23.357Z,86.20
2022-12-23T08:53:25.687Z,87.95
2022-12-23T08:54:29.621Z,90.25
2022-12-23T08:55:40.380Z,83.40
2022-12-23T08:56:43.466Z,81.85
2022-12-23T08:57:45.862Z,97.68
2022-12-23T08:58:50.292Z,110.05
2022-12-23T08:59:53.252Z,97.55
2022-12-23T09:00:55.872Z,103.78
2022-12-23T09:01:59.959Z,100.18
2022-12-23T09:03:03.763Z,92.43
2022-12-23T09:04:07.676Z,90.43
2022-12-23T09:05:10.279Z,90.95
2022-12-23T09:06:29.913Z,95.88
2022-12-23T09:07:32.776Z,91.15
2022-12-23T09:08:38.903Z,103.32
2022-12-23T09:09:41.392Z,91.95
2022-12-23T09:10:44.719Z,110.90
2022-12-23T09:11:49.948Z,101.57
2022-12-23T09:12:52.347Z,99.82
2022-12-23T09:13:58.355Z,102.38
2022-12-23T09:15:03.363Z,98.88
2022-12-23T09:16:06.609Z,97.15
2022-12-23T09:17:09.031Z,90.40
2022-12-23T09:18:12.605Z,86.22
2022-12-23T09:19:16.165Z,81.18
2022-12-23T09:20:18.704Z,83.13
2022-12-23T09:21:23.615Z,81.78
2022-12-23T09:22:26.096Z,92.97
2022-12-23T09:23:29.188Z,93.93
2022-12-23T09:24:35.350Z,89.03
2022-12-23T09:25:38.543Z,91.30
2022-12-23T09:26:44.380Z,88.53
2022-12-23T09:27:46.865Z,93.28
2022-12-23T09:28:54.708Z,89.85
2022-12-23T09:30:02.060Z,88.78
2022-12-23T09:31:12.495Z,89.55
2022-12-23T09:32:18.376Z,87.25
2022-12-23T09:33:28.368Z,86.50
2022-12-23T09:34:30.940Z,89.63
2022-12-23T09:35:37.777Z,96.53
2022-12-23T09:36:40.673Z,100.68
2022-12-23T09:37:43.489Z,91.53
2022-12-23T09:38:46.023Z,80.65
2022-12-23T09:39:48.827Z,83.78
2022-12-23T09:40:54.090Z,82.50
2022-12-23T09:42:01.999Z,82.97
2022-12-23T09:43:04.597Z,85.25
2022-12-23T09:44:27.384Z,86.18
2022-12-23T09:45:59.210Z,75.07
2022-12-23T09:47:05.927Z,71.32
2022-12-23T09:48:28.646Z,71.82
2022-12-23T09:49:31.469Z,66.82
2022-12-23T09:50:35.037Z,67.43
2022-12-23T09:51:37.546Z,72.25
2022-12-23T09:52:54.657Z,70.20
2022-12-23T09:54:26.882Z,68.57
2022-12-23T09:55:44.231Z,68.50
2022-12-23T09:57:00.734Z,75.05
2022-12-23T09:58:11.020Z,69.88
2022-12-23T09:59:51.463Z,70.20
2022-12-23T10:01:21.466Z,75.05
2022-12-23T10:02:43.410Z,77.22
2022-12-23T10:04:12.821Z,65.78
2022-12-23T10:05:21.180Z,65.68
2022-12-23T10:06:27.803Z,66.60
2022-12-23T10:08:04.295Z,69.97
2022-12-23T10:09:09.523Z,68.15
2022-12-23T10:10:32.454Z,69.63
2022-12-23T10:11:47.201Z,67.70
2022-12-23T10:12:58.433Z,70.80
2022-12-23T10:14:16.397Z,64.50
2022-12-23T10:15:28.388Z,66.43
2022-12-23T10:16:38.625Z,70.10
2022-12-23T10:17:43.720Z,65.20
2022-12-23T10:19:01.868Z,66.15
2022-12-23T10:20:07.289Z,68.38
2022-12-23T10:21:20.879Z,69.40
2022-12-23T10:22:43.269Z,71.35
2022-12-23T10:23:51.355Z,71.93
2022-12-23T10:24:59.239Z,68.57
2022-12-23T10:26:08.021Z,72.00
2022-12-23T10:27:33.346Z,73.88
2022-12-23T10:28:36.831Z,70.43
2022-12-23T10:29:44.282Z,72.07
2022-12-23T10:32:37.726Z,70.68
2022-12-23T10:33:51.943Z,80.00
2022-12-23T10:35:30.011Z,73.47
2022-12-23T10:36:45.764Z,66.20
2022-12-23T10:37:58.431Z,75.10
2022-12-23T10:39:36.763Z,75.53
2022-12-23T10:40:52.800Z,72.35
2022-12-23T10:42:22.712Z,72.35
2022-12-23T10:44:02.545Z,78.30
2022-12-23T10:45:39.140Z,76.00
2022-12-23T10:47:00.501Z,74.07
2022-12-23T10:48:38.568Z,76.30
2022-12-23T10:49:41.008Z,69.80
2022-12-23T10:51:04.091Z,78.38
2022-12-23T10:52:20.882Z,74.32
2022-12-23T10:53:44.712Z,70.97
2022-12-23T10:54:48.475Z,71.93
2022-12-23T10:55:52.380Z,78.63
2022-12-23T10:56:55.359Z,76.95
2022-12-23T10:59:33.844Z,75.90
2022-12-23T11:00:52.331Z,72.57
2022-12-23T11:02:24.183Z,76.05
2022-12-23T11:03:31.006Z,72.38
2022-12-23T11:04:39.073Z,72.40
2022-12-23T11:05:42.370Z,75.72
2022-12-23T11:06:52.810Z,76.63
2022-12-23T11:08:03.337Z,76.10
2022-12-23T11:09:07.410Z,77.10
2022-12-23T11:10:21.929Z,75.75
2022-12-23T11:11:24.336Z,76.35
2022-12-23T11:12:42.513Z,78.55
2022-12-23T11:13:47.003Z,78.38
2022-12-23T11:14:57.337Z,78.82
2022-12-23T11:16:14.116Z,72.00
2022-12-23T11:17:31.388Z,71.63
2022-12-23T11:18:40.352Z,74.78
2022-12-23T11:19:45.299Z,69.95
2022-12-23T11:21:05.775Z,70.50
2022-12-23T11:22:22.435Z,71.05
2022-12-23T11:23:25.961Z,64.82
2022-12-23T11:24:38.048Z,66.95
2022-12-23T11:25:44.248Z,65.03
2022-12-23T11:27:08.296Z,67.93
2022-12-23T11:28:10.672Z,68.68
2022-12-23T11:29:21.572Z,70.15
2022-12-23T11:30:25.201Z,68.88
2022-12-23T11:32:38.428Z,58.78
2022-12-23T11:33:54.976Z,65.72
2022-12-23T11:34:57.520Z,65.57
2022-12-23T11:36:24.118Z,65.07
2022-12-23T11:37:40.939Z,66.75
2022-12-23T11:38:56.024Z,65.57
2022-12-23T11:39:58.886Z,67.13
2022-12-23T11:41:07.939Z,67.40
2022-12-23T11:42:17.844Z,67.03
2022-12-23T11:43:23.476Z,70.82
2022-12-23T11:44:36.257Z,65.30
2022-12-23T11:45:45.194Z,68.07
2022-12-23T11:46:54.015Z,66.25
2022-12-23T11:48:01.007Z,62.08
2022-12-23T11:49:19.119Z,64.03
2022-12-23T11:50:51.054Z,64.55
2022-12-23T11:52:31.242Z,61.63
2022-12-23T11:53:35.205Z,55.63
2022-12-23T11:55:14.263Z,58.92
2022-12-23T11:56:21.797Z,55.95
2022-12-23T11:57:46.521Z,57.75
2022-12-23T11:59:07.891Z,52.10
2022-12-23T12:00:21.356Z,53.22
2022-12-23T12:01:25.468Z,53.80
2022-12-23T12:03:44.234Z,52.05
2022-12-23T12:04:58.370Z,54.25
2022-12-23T12:06:16.035Z,54.70
2022-12-23T12:07:21.880Z,57.13
2022-12-23T12:08:37.591Z,61.70
2022-12-23T12:09:43.619Z,52.88
2022-12-23T12:10:46.766Z,55.72
2022-12-23T12:11:53.093Z,59.25
2022-12-23T12:12:58.495Z,58.90
2022-12-23T12:14:04.075Z,54.10
2022-12-23T12:15:08.773Z,62.40
2022-12-23T12:17:09.541Z,54.05
2022-12-23T12:18:19.635Z,49.70
2022-12-23T12:19:31.838Z,53.42
2022-12-23T12:20:40.105Z,55.25
2022-12-23T12:21:44.924Z,58.53
2022-12-23T12:22:56.700Z,58.53
2022-12-23T12:24:18.203Z,53.88
2022-12-23T12:25:40.793Z,54.20
2022-12-23T12:26:47.857Z,56.53
2022-12-23T12:28:03.153Z,62.28
2022-12-23T12:29:16.691Z,62.75
2022-12-23T12:30:35.971Z,62.15
2022-12-23T12:31:38.819Z,64.60
2022-12-23T12:33:01.301Z,70.25
2022-12-23T12:34:39.216Z,71.18
2022-12-23T12:36:09.487Z,65.97
2022-12-23T12:37:17.961Z,66.55
2022-12-23T12:38:33.893Z,74.28
2022-12-23T12:39:46.160Z,73.20
2022-12-23T12:40:55.924Z,74.63
2022-12-23T12:42:10.093Z,74.13
2022-12-23T12:43:24.543Z,74.00
2022-12-23T12:44:39.127Z,72.68
2022-12-23T12:45:50.703Z,77.65
2022-12-23T12:47:27.950Z,67.50
2022-12-23T12:49:00.145Z,62.10
2022-12-23T12:50:17.927Z,58.67
2022-12-23T12:51:40.970Z,72.72
2022-12-23T12:52:46.529Z,74.40
2022-12-23T12:54:12.997Z,76.50
2022-12-23T12:55:23.855Z,81.20
2022-12-23T12:56:43.985Z,79.18
2022-12-23T12:57:47.159Z,73.97
2022-12-23T12:58:51.914Z,67.72
2022-12-23T13:00:03.599Z,65.35
2022-12-23T13:01:39.034Z,62.33
2022-12-23T13:03:03.167Z,66.43
2022-12-23T13:04:24.010Z,58.85
2022-12-23T13:05:54.102Z,61.63
2022-12-23T13:07:04.916Z,59.70
2022-12-23T13:08:15.102Z,61.38
2022-12-23T13:09:30.438Z,61.40
2022-12-23T13:10:48.420Z,64.43
2022-12-23T13:12:21.801Z,63.40
2022-12-23T13:13:41.698Z,62.80
2022-12-23T13:14:58.220Z,67.47
2022-12-23T13:16:06.720Z,69.50
2022-12-23T13:17:27.591Z,67.70
2022-12-23T13:18:45.058Z,66.45
2022-12-23T13:19:55.387Z,62.13
2022-12-23T13:21:24.477Z,60.50
2022-12-23T13:22:33.642Z,66.00
2022-12-23T13:23:46.581Z,66.50
2022-12-23T13:25:02.927Z,66.80
2022-12-23T13:26:23.656Z,68.70
2022-12-23T13:27:29.276Z,65.07
2022-12-23T13:29:04.755Z,71.53
2022-12-23T13:30:13.226Z,64.97
2022-12-23T13:31:22.065Z,67.88
2022-12-23T13:32:46.068Z,74.50
2022-12-23T13:34:04.057Z,72.78
2022-12-23T13:35:12.603Z,71.50
2022-12-23T13:36:32.521Z,70.25
2022-12-23T13:37:44.053Z,75.55
2022-12-23T13:38:58.750Z,72.53
2022-12-23T13:40:04.248Z,72.25
2022-12-23T13:41:22.331Z,73.72
2022-12-23T13:42:32.817Z,70.95
2022-12-23T13:44:50.175Z,70.03
2022-12-23T13:45:54.470Z,73.28
2022-12-23T13:47:12.205Z,75.88
2022-12-23T13:48:43.601Z,77.75
2022-12-23T13:49:53.181Z,73.35
2022-12-23T13:51:01.121Z,82.13
2022-12-23T13:52:20.304Z,82.80
2022-12-23T13:54:04.817Z,82.82
2022-12-23T13:55:07.899Z,73.97
2022-12-23T13:56:29.193Z,72.30
2022-12-23T13:57:45.424Z,84.53
2022-12-23T13:58:51.015Z,80.40
2022-12-23T14:00:05.421Z,78.43
2022-12-23T14:01:15.195Z,79.80
2022-12-23T14:02:41.125Z,79.20
2022-12-23T14:03:44.631Z,80.55
2022-12-23T14:04:56.052Z,79.63
2022-12-23T14:05:58.457Z,78.15
2022-12-23T14:07:17.175Z,79.10
2022-12-23T14:08:20.430Z,81.70
2022-12-23T14:09:39.237Z,78.32
2022-12-23T14:11:08.942Z,73.05
2022-12-23T14:12:23.819Z,79.50
2022-12-23T14:13:34.330Z,86.88
2022-12-23T14:14:43.063Z,90.72
2022-12-23T14:16:22.112Z,97.03
2022-12-23T14:17:44.872Z,102.20
2022-12-23T14:19:18.788Z,99.70
2022-12-23T14:20:37.327Z,86.25
2022-12-23T14:22:07.557Z,80.15
2022-12-23T14:23:12.756Z,78.25
2022-12-23T14:24:37.273Z,77.85
2022-12-23T14:25:59.286Z,74.22
2022-12-23T14:27:32.746Z,69.97
2022-12-23T14:28:36.341Z,65.82
2022-12-23T14:29:39.163Z,78.93
2022-12-23T14:30:46.129Z,80.05
2022-12-23T14:31:56.231Z,73.18
2022-12-23T14:33:01.260Z,72.97
2022-12-23T14:34:31.497Z,79.75
2022-12-23T14:35:40.231Z,75.70
2022-12-23T14:37:23.934Z,75.68
2022-12-23T14:38:35.314Z,67.35
2022-12-23T14:39:37.859Z,70.32
2022-12-23T14:40:40.236Z,71.30
2022-12-23T14:41:50.233Z,70.57
2022-12-23T14:43:21.900Z,71.53
2022-12-23T14:44:36.579Z,80.35
2022-12-23T14:45:43.645Z,66.22
2022-12-23T14:46:49.139Z,71.10
2022-12-23T14:47:51.962Z,65.55
2022-12-23T14:50:42.933Z,61.15
2022-12-23T14:51:51.380Z,65.35
2022-12-23T14:53:20.307Z,64.68
2022-12-23T14:54:55.136Z,63.40
2022-12-23T14:56:11.838Z,50.65
2022-12-23T14:57:31.119Z,62.80
2022-12-23T14:58:54.546Z,59.45
2022-12-23T15:00:04.510Z,56.55
2022-12-23T15:01:16.216Z,61.75
2022-12-23T15:02:35.402Z,61.58
2022-12-23T15:03:47.299Z,70.20
2022-12-23T15:05:29.071Z,68.47
2022-12-23T15:06:38.252Z,68.63
2022-12-23T15:07:57.462Z,68.07
2022-12-23T15:09:00.019Z,74.70
2022-12-23T15:10:18.861Z,64.35